Time;durP1;ratioP1;P1;durP2;ratioP2;P2;SDS_P1;SDS_P2;PMS_P1;PMS_P2;Temp;Humidity;BMP_temperature;BMP_pressure;BME280_temperature;BME280_humidity;BME280_pressure;Samples;Min_cycle;Max_cycle;Signal;HPM_P1;HPM_P2
2023/06/22 00:00:58;;;;;;;7.50;2.40;;;22.40;99.90;;;;;;7280449;19;20185;-76
2023/06/22 00:03:25;;;;;;;6.80;2.80;;;22.30;99.90;;;;;;7280367;19;20200;-76
2023/06/22 00:05:51;;;;;;;5.53;2.47;;;22.30;99.90;;;;;;7279340;19;20216;-76
2023/06/22 00:08:18;;;;;;;3.90;2.20;;;22.20;99.90;;;;;;7281521;19;20185;-76
2023/06/22 00:10:44;;;;;;;5.37;2.50;;;22.20;99.90;;;;;;7280609;19;20185;-76
2023/06/22 00:13:10;;;;;;;5.83;2.63;;;22.10;99.90;;;;;;7283271;19;20197;-76
2023/06/22 00:15:38;;;;;;;5.30;2.80;;;22.10;99.90;;;;;;7302877;19;20563;-76
2023/06/22 00:18:05;;;;;;;7.80;2.70;;;22.00;99.90;;;;;;7280720;19;20184;-76
2023/06/22 00:20:32;;;;;;;5.07;2.47;;;22.00;99.90;;;;;;7279055;19;20232;-77
2023/06/22 00:22:59;;;;;;;7.93;2.60;;;21.90;99.90;;;;;;7280099;19;20193;-76
2023/06/22 00:25:25;;;;;;;7.83;2.60;;;21.90;99.90;;;;;;7279479;19;20180;-77
2023/06/22 00:27:50;;;;;;;5.43;2.67;;;21.80;99.90;;;;;;7281601;19;20192;-76
2023/06/22 00:30:17;;;;;;;6.60;2.93;;;21.90;99.90;;;;;;7280212;19;20191;-76
2023/06/22 00:32:44;;;;;;;6.30;2.73;;;21.90;99.90;;;;;;7278562;19;20184;-76
2023/06/22 00:35:10;;;;;;;8.23;3.10;;;22.00;99.90;;;;;;7290072;19;20197;-76
2023/06/22 00:37:38;;;;;;;8.70;3.10;;;21.90;99.90;;;;;;7302453;19;20177;-76
2023/06/22 00:40:05;;;;;;;6.27;3.10;;;21.90;99.90;;;;;;7280210;19;20189;-77
2023/06/22 00:42:30;;;;;;;7.57;3.17;;;22.00;99.90;;;;;;7280705;19;20623;-77
2023/06/22 00:44:57;;;;;;;7.43;3.03;;;22.10;99.90;;;;;;7279243;19;21000;-76
2023/06/22 00:47:23;;;;;;;6.93;2.77;;;22.20;99.90;;;;;;7279662;19;20212;-76
2023/06/22 00:49:53;;;;;;;6.27;2.70;;;22.20;99.90;;;;;;7280326;19;20644;-77
2023/06/22 00:52:27;;;;;;;5.70;2.90;;;22.20;99.90;;;;;;7278604;19;20185;-76
2023/06/22 00:54:54;;;;;;;7.97;3.03;;;22.30;99.90;;;;;;7278010;19;20196;-76
2023/06/22 00:57:21;;;;;;;7.93;2.70;;;22.40;99.90;;;;;;7277960;19;20188;-77
2023/06/22 00:59:48;;;;;;;7.77;3.20;;;22.40;99.90;;;;;;7279078;19;20189;-76
2023/06/22 01:02:14;;;;;;;8.13;2.67;;;22.30;99.90;;;;;;7278706;19;20197;-76
2023/06/22 01:04:40;;;;;;;5.87;2.77;;;22.30;99.90;;;;;;7288318;19;20189;-75
2023/06/22 01:07:10;;;;;;;5.13;2.57;;;22.20;99.90;;;;;;7300603;19;20185;-76
2023/06/22 01:09:58;;;;;;;6.33;2.87;;;22.10;99.90;;;;;;7278807;19;20892;-76
2023/06/22 01:12:26;;;;;;;7.87;2.93;;;22.00;99.90;;;;;;7175273;19;2004553;-76
2023/06/22 01:15:04;;;;;;;6.40;2.77;;;22.00;99.90;;;;;;7279693;19;20264;-76
2023/06/22 01:17:32;;;;;;;8.37;2.87;;;21.90;99.90;;;;;;7277236;19;20282;-77
2023/06/22 01:20:00;;;;;;;5.63;2.77;;;21.90;99.90;;;;;;7277958;19;20193;-78
2023/06/22 01:22:30;;;;;;;8.47;2.70;;;21.90;99.90;;;;;;7277650;19;20199;-76
2023/06/22 01:25:28;;;;;;;7.07;2.93;;;22.00;99.90;;;;;;7281814;19;20193;-77
2023/06/22 01:28:17;;;;;;;6.60;3.17;;;22.00;99.90;;;;;;7182210;19;2006102;-76
2023/06/22 01:30:46;;;;;;;6.90;3.10;;;22.10;99.90;;;;;;7262333;19;20205;-77
2023/06/22 01:33:14;;;;;;;6.37;2.57;;;22.10;99.90;;;;;;7283830;19;20198;-77
2023/06/22 01:35:40;;;;;;;7.50;3.30;;;22.10;99.90;;;;;;7300214;19;20188;-76
2023/06/22 01:38:07;;;;;;;6.03;3.17;;;22.10;99.90;;;;;;7305904;19;20259;-76
2023/06/22 01:40:34;;;;;;;4.70;2.53;;;22.00;99.90;;;;;;7284416;19;20204;-76
2023/06/22 01:43:02;;;;;;;5.47;3.10;;;22.00;99.90;;;;;;7282947;19;20255;-77
2023/06/22 01:45:28;;;;;;;7.03;2.67;;;21.90;99.90;;;;;;7283410;19;20540;-77
2023/06/22 01:47:54;;;;;;;7.77;2.80;;;21.80;99.90;;;;;;7285382;19;20192;-76
2023/06/22 01:50:21;;;;;;;7.13;3.50;;;21.70;99.90;;;;;;7283298;19;20180;-77
2023/06/22 01:52:46;;;;;;;6.20;3.13;;;21.70;99.90;;;;;;7283804;19;20185;-77
2023/06/22 01:55:12;;;;;;;7.07;3.10;;;21.80;99.90;;;;;;7283519;19;20193;-77
2023/06/22 01:57:39;;;;;;;8.53;3.07;;;21.80;99.90;;;;;;7301347;19;20288;-78
2023/06/22 02:00:18;;;;;;;5.70;2.83;;;21.80;99.90;;;;;;7298721;19;20207;-76
2023/06/22 02:03:11;;;;;;;6.63;3.00;;;21.80;99.90;;;;;;7260563;19;20215;-77
2023/06/22 02:05:48;;;;;;;5.83;2.90;;;21.80;99.90;;;;;;7283824;19;20192;-76
2023/06/22 02:08:24;;;;;;;5.30;2.67;;;21.80;99.90;;;;;;7181963;19;2005013;-77
2023/06/22 02:10:52;;;;;;;7.37;2.90;;;21.80;99.90;;;;;;7280903;19;20224;-76
2023/06/22 02:13:20;;;;;;;6.03;2.90;;;21.80;99.90;;;;;;7284485;19;20189;-77
2023/06/22 02:15:47;;;;;;;6.43;2.93;;;21.80;99.90;;;;;;7284151;19;20252;-76
2023/06/22 02:18:13;;;;;;;5.87;3.13;;;21.80;99.90;;;;;;7283299;19;20267;-77
2023/06/22 02:20:40;;;;;;;5.97;3.20;;;21.80;99.90;;;;;;7303117;19;20181;-77
2023/06/22 02:23:07;;;;;;;8.83;3.07;;;21.90;99.90;;;;;;7300541;19;20742;-77
2023/06/22 02:25:35;;;;;;;9.97;3.47;;;21.80;99.90;;;;;;7282047;19;20196;-77
2023/06/22 02:28:01;;;;;;;6.33;3.27;;;21.80;99.90;;;;;;7283340;19;20180;-76
2023/06/22 02:30:27;;;;;;;9.00;3.73;;;21.80;99.90;;;;;;7283202;19;20215;-76
2023/06/22 02:32:59;;;;;;;6.00;3.13;;;21.90;99.90;;;;;;7283122;19;20185;-76
2023/06/22 02:35:31;;;;;;;9.17;3.60;;;21.90;99.90;;;;;;7281801;19;20196;-77
2023/06/22 02:38:00;;;;;;;6.23;3.27;;;21.90;99.90;;;;;;7282039;19;21043;-77
2023/06/22 02:40:27;;;;;;;6.77;2.77;;;21.90;99.90;;;;;;7282811;19;20191;-76
2023/06/22 02:42:55;;;;;;;5.47;3.10;;;21.80;99.90;;;;;;7282492;19;20197;-77
2023/06/22 02:45:21;;;;;;;5.47;2.67;;;21.70;99.90;;;;;;7281966;19;20196;-76
2023/06/22 02:47:50;;;;;;;7.17;3.30;;;21.60;99.90;;;;;;7281453;19;20192;-75
2023/06/22 02:50:17;;;;;;;6.93;3.10;;;21.50;99.90;;;;;;7280231;19;20185;-77
2023/06/22 02:52:43;;;;;;;6.70;3.47;;;21.60;99.90;;;;;;7281900;19;20823;-76
2023/06/22 02:55:08;;;;;;;7.10;4.00;;;21.70;99.90;;;;;;7303812;19;20188;-77
2023/06/22 02:57:34;;;;;;;8.37;4.07;;;21.80;99.90;;;;;;7281857;19;20188;-76
2023/06/22 03:00:11;;;;;;;9.17;3.83;;;21.80;99.90;;;;;;7283265;19;20238;-77
2023/06/22 03:02:39;;;;;;;8.17;3.80;;;21.80;99.90;;;;;;7282317;19;20207;-76
2023/06/22 03:05:06;;;;;;;8.33;3.60;;;21.70;99.90;;;;;;7282906;19;20731;-77
2023/06/22 03:07:31;;;;;;;5.80;3.10;;;21.70;99.90;;;;;;7282088;19;20743;-77
2023/06/22 03:09:58;;;;;;;8.77;3.20;;;21.60;99.90;;;;;;7281490;19;20557;-76
2023/06/22 03:12:24;;;;;;;7.43;2.73;;;21.40;99.90;;;;;;7282860;19;20181;-77
2023/06/22 03:14:53;;;;;;;6.70;2.87;;;21.30;99.90;;;;;;7281458;19;20267;-77
2023/06/22 03:17:19;;;;;;;6.57;3.10;;;21.30;99.90;;;;;;7282970;19;20301;-77
2023/06/22 03:19:45;;;;;;;5.47;2.90;;;21.30;99.90;;;;;;7282919;19;20185;-77
2023/06/22 03:22:10;;;;;;;7.00;3.00;;;21.30;99.90;;;;;;7291458;19;20185;-77
2023/06/22 03:24:38;;;;;;;8.30;3.70;;;21.40;99.90;;;;;;7303514;19;20644;-77
2023/06/22 03:27:05;;;;;;;8.40;4.00;;;21.50;99.90;;;;;;7282483;19;20201;-77
2023/06/22 03:29:31;;;;;;;6.60;3.30;;;21.50;99.90;;;;;;7282649;19;20189;-77
2023/06/22 03:31:57;;;;;;;8.07;3.37;;;21.50;99.90;;;;;;7281072;19;20551;-76
2023/06/22 03:34:22;;;;;;;6.93;3.43;;;21.60;99.90;;;;;;7281195;19;20205;-77
2023/06/22 03:36:51;;;;;;;8.87;3.20;;;21.60;99.90;;;;;;7282234;19;20189;-77
2023/06/22 03:39:17;;;;;;;8.07;3.43;;;21.50;99.90;;;;;;7279763;19;20184;-77
2023/06/22 03:41:43;;;;;;;7.87;4.00;;;21.60;99.90;;;;;;7282183;19;20244;-77
2023/06/22 03:44:12;;;;;;;9.13;4.23;;;21.70;99.90;;;;;;7304235;19;20188;-77
2023/06/22 03:46:38;;;;;;;10.13;4.00;;;21.60;99.90;;;;;;7280201;19;20675;-77
2023/06/22 03:49:04;;;;;;;7.10;3.40;;;21.40;99.90;;;;;;7280549;19;20302;-77
2023/06/22 03:51:31;;;;;;;8.23;3.80;;;21.40;99.90;;;;;;7282724;19;20197;-77
2023/06/22 03:53:57;;;;;;;11.37;3.97;;;21.40;99.90;;;;;;7281421;19;20193;-77
2023/06/22 03:56:23;;;;;;;10.63;3.40;;;21.20;99.90;;;;;;7281325;19;20189;-77
2023/06/22 03:58:49;;;;;;;6.93;3.60;;;21.30;99.90;;;;;;7281271;19;20202;-77
2023/06/22 04:01:16;;;;;;;9.93;3.90;;;21.00;99.90;;;;;;7278086;19;20216;-77
2023/06/22 04:03:42;;;;;;;9.37;3.70;;;20.90;99.90;;;;;;7279856;19;20669;-77
2023/06/22 04:06:08;;;;;;;10.40;4.07;;;21.00;99.90;;;;;;7302470;19;20218;-77
2023/06/22 04:08:34;;;;;;;8.33;3.80;;;21.10;99.90;;;;;;7281685;19;20612;-77
2023/06/22 04:11:00;;;;;;;8.87;3.90;;;21.10;99.90;;;;;;7280820;19;20201;-78
2023/06/22 04:13:25;;;;;;;7.57;3.67;;;21.20;99.90;;;;;;7280056;19;20864;-78
2023/06/22 04:15:51;;;;;;;7.13;3.70;;;21.30;99.90;;;;;;7279521;19;20672;-76
2023/06/22 04:18:17;;;;;;;6.63;3.90;;;21.40;99.90;;;;;;7279779;19;20867;-76
2023/06/22 04:20:44;;;;;;;8.37;3.90;;;21.50;99.90;;;;;;7281830;19;20686;-77
2023/06/22 04:23:10;;;;;;;10.07;4.20;;;21.60;99.90;;;;;;7291598;19;20252;-77
2023/06/22 04:25:36;;;;;;;11.23;4.37;;;21.60;99.90;;;;;;7299232;19;20210;-76
2023/06/22 04:28:03;;;;;;;10.80;4.00;;;21.70;99.90;;;;;;7281295;19;20268;-77
2023/06/22 04:30:31;;;;;;;8.10;4.20;;;21.70;99.90;;;;;;7278917;19;20210;-77
2023/06/22 04:32:57;;;;;;;8.50;4.50;;;21.80;99.90;;;;;;7279703;19;20203;-76
2023/06/22 04:35:28;;;;;;;10.90;4.40;;;21.80;99.90;;;;;;7279325;19;20248;-77
2023/06/22 04:37:56;;;;;;;9.97;4.33;;;21.70;99.90;;;;;;7280183;19;20192;-77
2023/06/22 04:40:24;;;;;;;10.80;4.90;;;21.80;99.90;;;;;;7278363;19;20197;-76
2023/06/22 04:42:53;;;;;;;11.00;4.63;;;21.80;99.90;;;;;;7278811;19;20189;-75
2023/06/22 04:45:20;;;;;;;7.67;3.93;;;21.80;99.90;;;;;;7279910;19;20730;-75
2023/06/22 04:47:46;;;;;;;9.00;4.83;;;21.80;99.90;;;;;;7279503;19;20189;-74
2023/06/22 04:50:12;;;;;;;8.73;4.70;;;21.80;99.90;;;;;;7278757;19;20214;-77
2023/06/22 04:52:38;;;;;;;9.87;4.20;;;21.90;99.90;;;;;;7301761;19;20560;-75
2023/06/22 04:55:05;;;;;;;10.20;6.00;;;21.90;99.90;;;;;;7279019;19;20245;-75
2023/06/22 04:57:32;;;;;;;9.90;5.47;;;22.00;99.90;;;;;;7277275;19;20585;-74
2023/06/22 05:00:01;;;;;;;10.73;5.63;;;22.00;99.90;;;;;;7283336;19;20665;-74
2023/06/22 05:02:32;;;;;;;11.83;6.20;;;22.00;99.90;;;;;;7283299;19;20195;-74
2023/06/22 05:04:58;;;;;;;12.13;6.10;;;21.90;99.90;;;;;;7282752;19;20192;-75
2023/06/22 05:07:25;;;;;;;12.03;6.47;;;21.80;99.90;;;;;;7286728;19;20627;-75
2023/06/22 05:09:51;;;;;;;12.00;5.93;;;21.60;99.90;;;;;;7283737;19;20181;-75
2023/06/22 05:12:16;;;;;;;11.63;6.63;;;21.60;99.90;;;;;;7285260;19;20188;-75
2023/06/22 05:14:42;;;;;;;12.60;6.83;;;21.40;99.90;;;;;;7285304;19;20201;-75
2023/06/22 05:17:13;;;;;;;13.97;7.53;;;21.50;99.90;;;;;;7306366;19;20185;-75
2023/06/22 05:19:39;;;;;;;14.17;7.97;;;21.40;99.90;;;;;;7285498;19;20211;-75
2023/06/22 05:22:06;;;;;;;12.00;7.27;;;21.30;99.90;;;;;;7285278;19;20201;-75
2023/06/22 05:24:32;;;;;;;14.60;7.40;;;21.30;99.90;;;;;;7284807;19;20201;-75
2023/06/22 05:26:58;;;;;;;14.57;7.00;;;21.40;99.90;;;;;;7286889;19;20197;-76
2023/06/22 05:29:33;;;;;;;11.67;7.47;;;21.40;99.90;;;;;;7288206;19;20192;-75
2023/06/22 05:31:59;;;;;;;13.00;7.27;;;21.40;99.90;;;;;;7283572;19;20549;-75
2023/06/22 05:34:24;;;;;;;12.50;7.70;;;21.30;99.90;;;;;;7283653;19;20880;-75
2023/06/22 05:36:50;;;;;;;12.63;7.50;;;21.20;99.90;;;;;;7285680;19;20196;-76
2023/06/22 05:39:16;;;;;;;15.00;8.30;;;21.10;99.90;;;;;;7280421;19;20602;-76
2023/06/22 05:41:43;;;;;;;16.93;8.40;;;21.10;99.90;;;;;;7284495;19;20640;-76
2023/06/22 05:44:08;;;;;;;12.33;7.83;;;21.00;99.90;;;;;;7305351;19;20734;-76
2023/06/22 05:46:34;;;;;;;12.80;7.73;;;21.10;99.90;;;;;;7284491;19;20205;-76
2023/06/22 05:49:00;;;;;;;13.00;7.70;;;21.20;99.90;;;;;;7281681;19;20204;-76
2023/06/22 05:51:26;;;;;;;13.77;7.47;;;21.00;99.90;;;;;;7286226;19;20195;-79
2023/06/22 05:53:54;;;;;;;12.67;8.30;;;21.00;99.90;;;;;;7285992;19;20188;-78
2023/06/22 05:56:20;;;;;;;16.80;8.97;;;20.90;99.90;;;;;;7286156;19;20185;-79
2023/06/22 05:58:46;;;;;;;14.13;8.73;;;20.90;99.90;;;;;;7287642;19;20191;-80
2023/06/22 06:01:12;;;;;;;14.70;9.13;;;20.80;99.90;;;;;;7287841;19;20268;-79
2023/06/22 06:03:41;;;;;;;14.93;9.60;;;20.80;99.90;;;;;;7308998;19;20197;-79
2023/06/22 06:06:07;;;;;;;19.10;10.23;;;20.90;99.90;;;;;;7286210;19;20776;-79
2023/06/22 06:08:33;;;;;;;16.90;10.13;;;21.10;99.90;;;;;;7288072;19;20193;-79
2023/06/22 06:10:59;;;;;;;14.70;9.67;;;21.10;99.90;;;;;;7284669;19;20214;-78
2023/06/22 06:13:24;;;;;;;16.37;10.50;;;21.10;99.90;;;;;;7287710;19;20221;-78
2023/06/22 06:15:54;;;;;;;17.20;11.17;;;21.10;99.90;;;;;;7286742;19;20199;-78
2023/06/22 06:18:21;;;;;;;17.87;11.10;;;21.30;99.90;;;;;;7283772;19;20192;-79
2023/06/22 06:20:46;;;;;;;17.47;11.87;;;21.40;99.90;;;;;;7285588;19;20185;-78
2023/06/22 06:23:12;;;;;;;16.60;11.20;;;21.50;99.90;;;;;;7285420;19;20204;-78
2023/06/22 06:25:38;;;;;;;17.40;11.60;;;21.70;99.90;;;;;;7305944;19;20635;-79
2023/06/22 06:28:04;;;;;;;20.90;12.07;;;22.00;99.90;;;;;;7285115;19;20621;-78
2023/06/22 06:30:30;;;;;;;19.23;12.50;;;22.30;99.90;;;;;;7284383;19;20206;-78
2023/06/22 06:32:56;;;;;;;18.13;12.70;;;22.60;99.90;;;;;;7285347;19;20193;-78
2023/06/22 06:35:22;;;;;;;19.73;13.13;;;22.70;99.90;;;;;;7286027;19;20537;-78
2023/06/22 06:37:49;;;;;;;20.37;13.50;;;22.70;99.90;;;;;;7285668;19;20193;-78
2023/06/22 06:40:17;;;;;;;21.70;14.23;;;22.90;99.90;;;;;;7284628;19;20519;-77
2023/06/22 06:42:45;;;;;;;24.60;15.07;;;22.90;99.90;;;;;;7285472;19;20188;-78
2023/06/22 06:45:22;;;;;;;23.03;14.53;;;22.90;99.90;;;;;;7299867;19;20187;-78
2023/06/22 06:47:48;;;;;;;23.90;15.17;;;23.10;99.90;;;;;;7285957;19;20211;-78
2023/06/22 06:50:14;;;;;;;22.17;14.80;;;23.20;99.90;;;;;;7284753;19;20742;-78
2023/06/22 06:52:41;;;;;;;26.38;16.02;;;23.30;99.90;;;;;;7304080;19;20181;-77
2023/06/22 06:55:10;;;;;;;23.45;15.75;;;23.30;99.90;;;;;;7306984;19;20260;-77
2023/06/22 06:57:37;;;;;;;24.33;15.70;;;23.40;99.90;;;;;;7284771;19;20189;-77
2023/06/22 07:00:11;;;;;;;25.80;16.07;;;23.40;99.90;;;;;;7284943;19;20204;-77
2023/06/22 07:02:39;;;;;;;21.87;15.70;;;23.30;99.90;;;;;;7284836;19;20731;-77
2023/06/22 07:05:06;;;;;;;25.47;16.27;;;23.30;99.90;;;;;;7285188;19;20181;-77
2023/06/22 07:07:32;;;;;;;23.90;15.93;;;23.20;99.90;;;;;;7284047;19;20921;-77
2023/06/22 07:09:58;;;;;;;26.67;16.20;;;23.50;99.90;;;;;;7284872;19;20213;-77
2023/06/22 07:12:24;;;;;;;21.35;14.18;;;23.80;99.90;;;;;;7284986;19;20188;-77
2023/06/22 07:14:50;;;;;;;23.02;15.88;;;24.10;99.90;;;;;;7285312;19;20801;-77
2023/06/22 07:17:16;;;;;;;24.53;15.70;;;24.00;99.90;;;;;;7284196;19;20181;-77
2023/06/22 07:19:42;;;;;;;26.08;16.13;;;24.10;99.90;;;;;;7283334;19;20213;-78
2023/06/22 07:22:08;;;;;;;25.27;16.23;;;24.50;99.90;;;;;;7306056;19;20201;-78
2023/06/22 07:24:33;;;;;;;24.17;15.70;;;24.30;99.90;;;;;;7283128;19;20193;-79
2023/06/22 07:26:59;;;;;;;23.95;16.35;;;24.00;99.90;;;;;;7284706;19;20508;-78
2023/06/22 07:29:26;;;;;;;29.63;17.00;;;23.80;99.90;;;;;;7284103;19;20216;-78
2023/06/22 07:31:51;;;;;;;27.73;17.30;;;23.50;99.90;;;;;;7284338;19;20678;-77
2023/06/22 07:34:18;;;;;;;25.70;16.53;;;23.10;99.90;;;;;;7284753;19;20188;-77
2023/06/22 07:36:44;;;;;;;27.27;16.97;;;22.90;99.90;;;;;;7284803;19;20672;-78
2023/06/22 07:39:10;;;;;;;25.60;16.43;;;22.90;99.90;;;;;;7305444;19;20189;-78
2023/06/22 07:41:36;;;;;;;24.87;16.93;;;22.90;99.90;;;;;;7292435;19;20541;-77
2023/06/22 07:44:03;;;;;;;25.83;17.23;;;23.00;99.90;;;;;;7284329;19;20193;-77
2023/06/22 07:46:30;;;;;;;24.10;16.67;;;23.00;99.90;;;;;;7283830;19;20660;-78
2023/06/22 07:48:56;;;;;;;24.80;16.43;;;23.20;99.90;;;;;;7284063;19;20599;-77
2023/06/22 07:51:23;;;;;;;23.83;15.73;;;23.10;99.90;;;;;;7283343;19;20538;-78
2023/06/22 07:53:48;;;;;;;24.23;15.90;;;23.20;99.90;;;;;;7280466;19;20240;-78
2023/06/22 07:56:18;;;;;;;23.37;16.07;;;23.30;99.90;;;;;;7283212;19;20960;-78
2023/06/22 07:58:45;;;;;;;26.50;15.17;;;23.30;99.90;;;;;;7280461;19;20191;-78
2023/06/22 08:01:11;;;;;;;25.33;15.10;;;23.20;99.90;;;;;;7290091;19;20818;-78
2023/06/22 08:03:37;;;;;;;22.77;14.97;;;23.10;99.90;;;;;;7303125;19;20774;-78
2023/06/22 08:06:03;;;;;;;23.17;15.40;;;23.20;99.90;;;;;;7284358;19;20192;-78
2023/06/22 08:08:29;;;;;;;24.07;14.23;;;23.20;99.90;;;;;;7284845;19;20187;-78
2023/06/22 08:10:55;;;;;;;21.33;14.10;;;23.20;99.90;;;;;;7284942;19;20244;-78
2023/06/22 08:13:20;;;;;;;21.30;14.00;;;23.20;99.90;;;;;;7284418;19;20287;-78
2023/06/22 08:15:46;;;;;;;19.40;13.33;;;23.00;99.90;;;;;;7283273;19;20281;-78
2023/06/22 08:18:12;;;;;;;20.63;13.90;;;23.00;99.90;;;;;;7284726;19;20636;-78
2023/06/22 08:20:37;;;;;;;21.67;13.43;;;23.00;99.90;;;;;;7306518;19;20210;-77
2023/06/22 08:23:06;;;;;;;22.87;14.23;;;23.00;99.90;;;;;;7283412;19;20256;-78
2023/06/22 08:25:33;;;;;;;21.37;14.87;;;22.80;99.90;;;;;;7283883;19;20210;-77
2023/06/22 08:27:59;;;;;;;20.27;12.87;;;22.80;99.90;;;;;;7283877;19;20180;-77
2023/06/22 08:30:25;;;;;;;21.63;13.67;;;22.80;99.90;;;;;;7283296;19;20544;-77
2023/06/22 08:32:51;;;;;;;20.77;13.50;;;22.80;99.90;;;;;;7282235;19;20180;-77
2023/06/22 08:35:17;;;;;;;20.13;13.17;;;22.90;99.90;;;;;;7283358;19;20185;-77
2023/06/22 08:37:43;;;;;;;18.57;13.57;;;23.00;99.90;;;;;;7283286;19;20248;-78
2023/06/22 08:40:10;;;;;;;22.20;13.53;;;23.00;99.90;;;;;;7304716;19;20609;-78
2023/06/22 08:42:37;;;;;;;20.23;13.23;;;22.90;99.90;;;;;;7283638;19;20250;-79
2023/06/22 08:45:03;;;;;;;20.70;13.77;;;23.00;99.90;;;;;;7282825;19;20214;-78
2023/06/22 08:47:29;;;;;;;19.10;12.80;;;23.00;99.90;;;;;;7283573;19;20189;-78
2023/06/22 08:49:55;;;;;;;21.53;13.90;;;23.00;99.90;;;;;;7282368;19;20185;-78
2023/06/22 08:52:21;;;;;;;21.00;13.27;;;23.00;99.90;;;;;;7284747;19;20212;-77
2023/06/22 08:54:47;;;;;;;21.07;12.60;;;23.10;99.90;;;;;;7282859;19;20252;-78
2023/06/22 08:57:13;;;;;;;18.40;12.40;;;23.20;99.90;;;;;;7282360;19;20228;-78
2023/06/22 08:59:39;;;;;;;18.07;12.53;;;23.30;99.90;;;;;;7303972;19;20240;-78
2023/06/22 09:02:05;;;;;;;19.63;12.90;;;23.40;99.90;;;;;;7282682;19;20196;-79
2023/06/22 09:04:34;;;;;;;18.88;12.30;;;23.50;99.90;;;;;;7283589;19;20177;-78
2023/06/22 09:07:01;;;;;;;22.87;14.00;;;23.50;99.90;;;;;;7283883;19;20284;-78
2023/06/22 09:09:27;;;;;;;21.47;13.57;;;23.50;99.90;;;;;;7281367;19;20191;-78
2023/06/22 09:11:53;;;;;;;22.53;13.60;;;23.60;99.90;;;;;;7282435;19;20189;-79
2023/06/22 09:14:18;;;;;;;22.43;13.97;;;23.40;99.90;;;;;;7284011;19;20192;-78
2023/06/22 09:16:44;;;;;;;23.00;14.77;;;23.20;99.90;;;;;;7282909;19;20188;-78
2023/06/22 09:19:10;;;;;;;22.40;14.60;;;23.10;99.90;;;;;;7303675;19;20184;-78
2023/06/22 09:21:36;;;;;;;25.30;14.27;;;23.00;99.90;;;;;;7283220;19;20208;-78
2023/06/22 09:24:02;;;;;;;25.40;15.57;;;22.90;99.90;;;;;;7280480;19;20787;-78
2023/06/22 09:26:28;;;;;;;29.05;16.73;;;22.70;99.90;;;;;;7282042;19;20185;-79
2023/06/22 09:28:54;;;;;;;35.73;19.63;;;22.50;99.90;;;;;;7281231;19;20256;-78
2023/06/22 09:31:25;;;;;;;27.17;17.77;;;22.20;99.90;;;;;;7280425;19;20194;-78
2023/06/22 09:33:52;;;;;;;24.77;17.23;;;22.00;99.90;;;;;;7281755;19;20801;-78
2023/06/22 09:36:18;;;;;;;27.90;17.80;;;21.80;99.90;;;;;;7280555;19;20205;-78
2023/06/22 09:38:44;;;;;;;30.80;20.10;;;21.50;99.90;;;;;;7281084;19;20181;-78
2023/06/22 09:41:10;;;;;;;29.97;19.40;;;21.40;99.90;;;;;;7303179;19;20185;-78
2023/06/22 09:43:36;;;;;;;32.53;21.57;;;21.30;99.90;;;;;;7281562;19;20192;-78
2023/06/22 09:46:02;;;;;;;31.07;20.50;;;21.20;99.90;;;;;;7286707;19;20657;-78
2023/06/22 09:48:29;;;;;;;30.77;21.53;;;21.20;99.90;;;;;;7288080;19;20185;-78
2023/06/22 09:50:55;;;;;;;30.43;22.60;;;21.10;99.90;;;;;;7287889;19;20188;-78
2023/06/22 09:53:20;;;;;;;35.67;22.27;;;21.10;99.90;;;;;;7286836;19;20185;-78
2023/06/22 09:55:47;;;;;;;36.13;22.30;;;21.10;99.90;;;;;;7286685;19;20544;-77
2023/06/22 09:58:12;;;;;;;35.13;23.17;;;21.00;99.90;;;;;;7287299;19;20189;-77
2023/06/22 10:00:38;;;;;;;37.10;22.93;;;20.90;99.90;;;;;;7310815;19;20208;-77
2023/06/22 10:03:04;;;;;;;33.40;22.40;;;20.40;99.90;;;;;;7287713;19;20219;-77
2023/06/22 10:05:29;;;;;;;32.00;21.83;;;20.20;99.90;;;;;;7287491;19;20187;-78
2023/06/22 10:07:55;;;;;;;34.13;21.83;;;20.00;99.90;;;;;;7288117;19;20191;-78
2023/06/22 10:10:21;;;;;;;29.93;22.10;;;19.90;99.90;;;;;;7285710;19;20205;-78
2023/06/22 10:12:54;;;;;;;28.77;20.10;;;19.90;99.90;;;;;;7285881;19;20184;-78
2023/06/22 10:15:21;;;;;;;28.50;19.23;;;19.90;99.90;;;;;;7286786;19;20191;-78
2023/06/22 10:17:47;;;;;;;29.10;18.87;;;19.60;99.90;;;;;;7286119;19;20540;-77
2023/06/22 10:20:13;;;;;;;28.80;18.97;;;19.30;99.90;;;;;;7285750;19;20647;-78
2023/06/22 10:22:43;;;;;;;31.67;20.93;;;19.00;99.90;;;;;;7307966;19;20244;-78
2023/06/22 10:25:10;;;;;;;30.23;20.73;;;18.90;99.90;;;;;;7286927;19;20180;-78
2023/06/22 10:27:36;;;;;;;30.93;21.80;;;18.70;99.90;;;;;;7286768;19;20208;-78
2023/06/22 10:30:02;;;;;;;35.47;23.17;;;18.60;99.90;;;;;;7286248;19;20653;-77
2023/06/22 10:32:28;;;;;;;38.03;25.33;;;18.60;99.90;;;;;;7286167;19;20274;-76
2023/06/22 10:34:54;;;;;;;38.43;27.30;;;18.80;99.90;;;;;;7286133;19;20628;-77
2023/06/22 10:37:20;;;;;;;38.67;27.83;;;18.80;99.90;;;;;;7287432;19;20184;-78
2023/06/22 10:39:46;;;;;;;41.00;28.50;;;18.90;99.90;;;;;;7286161;19;20181;-77
2023/06/22 10:42:12;;;;;;;39.23;29.20;;;18.90;99.90;;;;;;7295548;19;20189;-78
2023/06/22 10:44:41;;;;;;;40.03;27.47;;;19.00;99.90;;;;;;7307074;19;20202;-77
2023/06/22 10:47:07;;;;;;;36.83;25.00;;;19.10;99.90;;;;;;7285849;19;20185;-77
2023/06/22 10:49:32;;;;;;;29.23;21.03;;;19.20;99.90;;;;;;7285545;19;20529;-77
2023/06/22 10:51:58;;;;;;;30.50;21.70;;;19.30;99.90;;;;;;7285976;19;20660;-78
2023/06/22 10:54:24;;;;;;;31.13;20.93;;;19.40;99.90;;;;;;7287037;19;20593;-77
2023/06/22 10:56:50;;;;;;;27.97;20.33;;;19.60;99.90;;;;;;7284145;19;20189;-78
2023/06/22 10:59:16;;;;;;;27.00;19.37;;;19.80;99.90;;;;;;7286918;19;20189;-78
2023/06/22 11:01:41;;;;;;;25.43;19.30;;;19.70;99.90;;;;;;7293738;19;20273;-78
2023/06/22 11:04:07;;;;;;;27.30;21.03;;;19.80;99.90;;;;;;7305915;19;20200;-77
2023/06/22 11:06:33;;;;;;;27.33;20.30;;;19.80;99.90;;;;;;7286275;19;20200;-78
2023/06/22 11:08:59;;;;;;;28.23;21.97;;;20.00;99.90;;;;;;7286415;19;20204;-78
2023/06/22 11:11:27;;;;;;;27.73;21.00;;;20.00;99.90;;;;;;7285394;19;20216;-78
2023/06/22 11:13:53;;;;;;;30.40;21.37;;;20.00;99.90;;;;;;7286054;19;20191;-78
2023/06/22 11:16:19;;;;;;;28.77;21.50;;;20.20;99.90;;;;;;7285741;19;20181;-78
2023/06/22 11:18:44;;;;;;;32.20;23.53;;;20.20;99.90;;;;;;7284344;19;20188;-77
2023/06/22 11:21:10;;;;;;;31.23;24.23;;;20.40;99.90;;;;;;7307294;19;20215;-78
2023/06/22 11:23:36;;;;;;;34.47;24.63;;;20.30;99.90;;;;;;7285987;19;20982;-78
2023/06/22 11:26:01;;;;;;;34.57;25.10;;;20.10;99.90;;;;;;7284947;19;20252;-78
2023/06/22 11:28:27;;;;;;;34.80;26.17;;;20.20;99.90;;;;;;7284520;19;20219;-78
2023/06/22 11:30:53;;;;;;;40.07;27.07;;;20.30;99.90;;;;;;7284549;19;20195;-78
2023/06/22 11:33:19;;;;;;;34.90;25.47;;;20.30;99.90;;;;;;7285174;19;20187;-78
2023/06/22 11:35:44;;;;;;;38.83;28.50;;;20.30;99.90;;;;;;7284669;19;20183;-78
2023/06/22 11:38:10;;;;;;;39.13;28.10;;;20.30;99.90;;;;;;7307307;19;20198;-78
2023/06/22 11:40:36;;;;;;;38.63;28.07;;;20.30;99.90;;;;;;7285781;19;20187;-78
2023/06/22 11:43:02;;;;;;;36.77;25.83;;;20.30;99.90;;;;;;7285425;19;20271;-78
2023/06/22 11:45:28;;;;;;;37.57;28.70;;;20.20;99.90;;;;;;7284243;19;20183;-77
2023/06/22 11:47:54;;;;;;;40.40;28.30;;;20.10;99.90;;;;;;7285992;19;20674;-78
2023/06/22 11:50:19;;;;;;;38.33;29.07;;;20.10;99.90;;;;;;7285052;19;20965;-77
2023/06/22 11:52:45;;;;;;;38.97;28.90;;;20.10;99.90;;;;;;7285234;19;20646;-78
2023/06/22 11:55:11;;;;;;;38.53;27.93;;;20.20;99.90;;;;;;7302359;19;20244;-78
2023/06/22 11:57:38;;;;;;;40.00;28.77;;;20.10;99.90;;;;;;7296088;19;20189;-78
2023/06/22 12:00:16;;;;;;;42.00;29.80;;;19.90;99.90;;;;;;7284833;19;20188;-78
2023/06/22 12:02:41;;;;;;;37.57;27.43;;;19.80;99.90;;;;;;7272051;19;20190;-78
2023/06/22 12:05:07;;;;;;;36.27;25.33;;;19.80;99.90;;;;;;7300821;19;20181;-78
2023/06/22 12:07:33;;;;;;;37.97;26.13;;;19.60;99.90;;;;;;7283555;19;20204;-78
2023/06/22 12:09:59;;;;;;;36.37;25.67;;;19.30;99.90;;;;;;7279724;19;20188;-78
2023/06/22 12:12:25;;;;;;;37.60;25.47;;;19.20;99.90;;;;;;7282505;19;20190;-78
2023/06/22 12:14:50;;;;;;;37.93;27.00;;;19.30;99.90;;;;;;7282989;19;20212;-78
2023/06/22 12:17:16;;;;;;;37.00;25.53;;;19.20;99.90;;;;;;7283976;19;20196;-78
2023/06/22 12:19:42;;;;;;;37.30;27.17;;;19.10;99.90;;;;;;7292229;19;20180;-77
2023/06/22 12:22:07;;;;;;;41.80;28.83;;;19.00;99.90;;;;;;7305159;19;20252;-78
2023/06/22 12:24:33;;;;;;;45.23;29.20;;;19.00;99.90;;;;;;7282062;19;20286;-78
2023/06/22 12:26:59;;;;;;;40.57;29.07;;;19.10;99.90;;;;;;7284803;19;20197;-78
2023/06/22 12:29:24;;;;;;;41.30;29.80;;;19.10;99.90;;;;;;7283259;19;20733;-78
2023/06/22 12:31:50;;;;;;;42.30;29.17;;;19.00;99.90;;;;;;7283653;19;20225;-78
2023/06/22 12:34:16;;;;;;;39.57;28.90;;;19.10;99.90;;;;;;7283585;19;20196;-78